Time;durP1;ratioP1;P1;durP2;ratioP2;P2;SDS_P1;SDS_P2;PMS_P1;PMS_P2;Temp;Humidity;BMP_temperature;BMP_pressure;BME280_temperature;BME280_humidity;BME280_pressure;Samples;Min_cycle;Max_cycle;Signal;HPM_P1;HPM_P2
2021/08/30 00:00:32;;;;;;;2.20;2.00;;;16.20;99.90;;;;;;5076902;28;20560;-73
2021/08/30 00:03:00;;;;;;;2.27;2.07;;;16.10;99.90;;;;;;5076687;28;20462;-74
2021/08/30 00:05:27;;;;;;;3.40;2.00;;;16.10;99.90;;;;;;5076179;28;20481;-74
2021/08/30 00:07:53;;;;;;;2.57;2.37;;;16.10;99.90;;;;;;5075870;28;20454;-73
2021/08/30 00:10:20;;;;;;;2.60;2.40;;;16.10;99.90;;;;;;5076563;28;20454;-73
2021/08/30 00:12:47;;;;;;;2.43;2.20;;;16.10;99.90;;;;;;5075760;28;20473;-74
2021/08/30 00:15:15;;;;;;;2.90;2.60;;;16.10;99.90;;;;;;5076566;28;20454;-73
2021/08/30 00:17:43;;;;;;;2.73;2.43;;;16.10;99.90;;;;;;5076625;28;20475;-74
2021/08/30 00:20:14;;;;;;;3.30;2.80;;;16.10;99.90;;;;;;5077502;28;20466;-73
2021/08/30 00:22:40;;;;;;;3.10;2.63;;;16.10;99.90;;;;;;5078681;28;20462;-74
2021/08/30 00:25:08;;;;;;;7.73;2.63;;;16.10;99.90;;;;;;5077706;28;20482;-74
2021/08/30 00:27:35;;;;;;;2.70;2.50;;;16.10;99.90;;;;;;5078782;28;20468;-74
2021/08/30 00:30:02;;;;;;;2.83;2.63;;;16.20;99.90;;;;;;5078799;28;20485;-72
2021/08/30 00:32:29;;;;;;;2.83;2.60;;;16.20;99.90;;;;;;5080187;28;20459;-73
2021/08/30 00:34:56;;;;;;;2.63;2.17;;;16.20;99.90;;;;;;5082772;28;20446;-73
2021/08/30 00:37:24;;;;;;;2.87;2.67;;;16.20;99.90;;;;;;5080859;28;20473;-73
2021/08/30 00:39:51;;;;;;;3.00;2.70;;;16.20;99.90;;;;;;5079915;28;20458;-74
2021/08/30 00:42:19;;;;;;;3.10;2.60;;;16.30;99.90;;;;;;5075822;28;20462;-73
2021/08/30 00:44:46;;;;;;;3.10;2.80;;;16.30;99.90;;;;;;5075682;28;20459;-73
2021/08/30 00:47:13;;;;;;;2.50;2.30;;;16.30;99.90;;;;;;5076003;28;20803;-73
2021/08/30 00:49:40;;;;;;;2.57;2.23;;;16.30;99.90;;;;;;5075757;28;20486;-73
2021/08/30 00:52:07;;;;;;;5.03;2.63;;;16.30;99.90;;;;;;5075531;28;20458;-73
2021/08/30 00:54:35;;;;;;;3.90;2.40;;;16.30;99.90;;;;;;5075458;28;20465;-73
2021/08/30 00:57:04;;;;;;;2.83;2.63;;;16.30;99.90;;;;;;5075582;28;20576;-74
2021/08/30 00:59:31;;;;;;;3.07;2.80;;;16.30;99.90;;;;;;5075498;28;20503;-73
2021/08/30 01:01:58;;;;;;;2.93;2.73;;;16.40;99.90;;;;;;5075323;28;20462;-73
2021/08/30 01:04:25;;;;;;;3.23;2.93;;;16.40;99.90;;;;;;5075342;28;20481;-73
2021/08/30 01:06:58;;;;;;;3.70;3.40;;;16.40;99.90;;;;;;5075254;28;20459;-73
2021/08/30 01:09:31;;;;;;;4.60;3.03;;;16.40;99.90;;;;;;5074995;28;20453;-73
2021/08/30 01:12:07;;;;;;;2.90;2.70;;;16.40;99.90;;;;;;5075209;28;20442;-73
2021/08/30 01:14:52;;;;;;;2.80;2.40;;;16.40;99.90;;;;;;5075234;28;20439;-73
2021/08/30 01:17:20;;;;;;;3.00;2.80;;;16.30;99.90;;;;;;5075862;28;20814;-73
2021/08/30 01:19:52;;;;;;;3.20;2.90;;;16.30;99.90;;;;;;5075125;28;20454;-73
2021/08/30 01:22:21;;;;;;;3.20;2.90;;;16.30;99.90;;;;;;5074428;28;20438;-73
2021/08/30 01:24:50;;;;;;;2.70;2.50;;;16.30;99.90;;;;;;5075361;28;20794;-73
2021/08/30 01:27:19;;;;;;;2.77;2.57;;;16.30;99.90;;;;;;5074789;28;20767;-73
2021/08/30 01:29:53;;;;;;;3.50;3.20;;;16.30;99.90;;;;;;5075076;28;20461;-73
2021/08/30 01:32:40;;;;;;;3.30;3.00;;;16.30;99.90;;;;;;5074647;28;20891;-74
2021/08/30 01:35:09;;;;;;;2.90;2.70;;;16.30;99.90;;;;;;5074420;28;20441;-73
2021/08/30 01:37:38;;;;;;;3.50;3.20;;;16.30;99.90;;;;;;5074695;28;20455;-73
2021/08/30 01:40:08;;;;;;;3.17;2.97;;;16.30;99.90;;;;;;5074895;28;20914;-73
2021/08/30 01:42:36;;;;;;;3.03;2.83;;;16.30;99.90;;;;;;5074345;28;20492;-74
2021/08/30 01:45:06;;;;;;;3.50;3.20;;;16.30;99.90;;;;;;5074990;28;20463;-74
2021/08/30 01:47:34;;;;;;;3.40;3.10;;;16.30;99.90;;;;;;5074819;28;20464;-74
2021/08/30 01:50:04;;;;;;;3.30;3.00;;;16.30;99.90;;;;;;5075192;28;20512;-74
2021/08/30 01:52:32;;;;;;;3.73;3.43;;;16.30;99.90;;;;;;5074889;28;20494;-73
2021/08/30 01:55:05;;;;;;;3.40;3.10;;;16.30;99.90;;;;;;5074999;28;20489;-74
2021/08/30 01:57:41;;;;;;;2.60;2.40;;;16.30;99.90;;;;;;5074733;28;20446;-74
2021/08/30 02:02:53;;;;;;;4.73;3.07;;;16.20;99.90;;;;;;5075737;28;20421;-74
2021/08/30 02:05:21;;;;;;;3.17;2.87;;;16.20;99.90;;;;;;5075937;28;20482;-75
2021/08/30 02:07:47;;;;;;;2.70;2.40;;;16.20;99.90;;;;;;5075194;28;20533;-74
2021/08/30 02:10:14;;;;;;;2.60;2.40;;;16.10;99.90;;;;;;5073997;28;20469;-75
2021/08/30 02:12:41;;;;;;;4.40;3.03;;;16.10;99.90;;;;;;5073913;28;20458;-74
2021/08/30 02:15:09;;;;;;;3.00;2.63;;;16.10;99.90;;;;;;5074366;28;20454;-75
2021/08/30 02:17:37;;;;;;;2.80;2.60;;;16.10;99.90;;;;;;5074059;28;20469;-74
2021/08/30 02:20:11;;;;;;;3.50;3.20;;;16.10;99.90;;;;;;5074099;28;20477;-75
2021/08/30 02:22:43;;;;;;;2.80;2.60;;;16.10;99.90;;;;;;5073943;28;20453;-74
2021/08/30 02:25:13;;;;;;;3.03;2.73;;;16.10;99.90;;;;;;5074050;28;20528;-74
2021/08/30 02:27:45;;;;;;;3.13;2.83;;;16.10;99.90;;;;;;5074255;28;20802;-74
2021/08/30 02:30:18;;;;;;;3.97;3.60;;;16.10;99.90;;;;;;5073881;28;20486;-75
2021/08/30 02:32:46;;;;;;;3.60;3.30;;;16.10;99.90;;;;;;5073900;28;20507;-74
2021/08/30 02:35:16;;;;;;;3.70;3.40;;;16.10;99.90;;;;;;5076475;28;20450;-74
2021/08/30 02:37:45;;;;;;;3.53;3.23;;;16.10;99.90;;;;;;5078028;28;20454;-74
2021/08/30 02:40:13;;;;;;;5.23;2.73;;;16.10;99.90;;;;;;5078138;28;20572;-74
2021/08/30 02:42:40;;;;;;;3.60;3.30;;;16.10;99.90;;;;;;5077522;28;20512;-75
2021/08/30 02:45:10;;;;;;;4.00;3.60;;;16.10;99.90;;;;;;5077958;28;20476;-74
2021/08/30 02:47:38;;;;;;;3.50;3.20;;;16.10;99.90;;;;;;5078444;28;20458;-74
2021/08/30 02:50:07;;;;;;;3.23;2.93;;;16.10;99.90;;;;;;5078927;28;20787;-74
2021/08/30 02:52:35;;;;;;;3.90;3.43;;;16.10;99.90;;;;;;5077629;28;20468;-74
2021/08/30 02:55:03;;;;;;;3.83;3.43;;;16.00;99.90;;;;;;5077546;28;20773;-75
2021/08/30 02:57:34;;;;;;;3.90;3.60;;;16.00;99.90;;;;;;5077530;28;20840;-75
2021/08/30 03:00:01;;;;;;;3.80;3.40;;;16.00;99.90;;;;;;5077282;28;20442;-74
2021/08/30 03:02:29;;;;;;;3.30;3.00;;;16.00;99.90;;;;;;5077898;28;20458;-74
2021/08/30 03:04:57;;;;;;;4.03;3.70;;;16.00;99.90;;;;;;5077861;28;20473;-74
2021/08/30 03:07:28;;;;;;;4.30;3.67;;;16.00;99.90;;;;;;5078292;28;20462;-74
2021/08/30 03:09:55;;;;;;;3.30;3.00;;;16.00;99.90;;;;;;5077193;28;20473;-74
2021/08/30 03:12:27;;;;;;;3.93;3.53;;;16.00;99.90;;;;;;5077081;28;20465;-74
2021/08/30 03:14:55;;;;;;;4.10;3.70;;;15.90;99.90;;;;;;5076735;28;20472;-74
2021/08/30 03:17:24;;;;;;;3.97;3.50;;;15.90;99.90;;;;;;5077082;28;20488;-74
2021/08/30 03:19:53;;;;;;;4.13;3.73;;;15.90;99.90;;;;;;5076986;28;20481;-74
2021/08/30 03:22:21;;;;;;;4.40;4.00;;;15.90;99.90;;;;;;5076826;28;20469;-74
2021/08/30 03:24:48;;;;;;;4.07;3.70;;;15.90;99.90;;;;;;5076528;28;20465;-74
2021/08/30 03:27:16;;;;;;;4.10;3.50;;;16.00;99.90;;;;;;5077238;28;20469;-74
2021/08/30 03:29:46;;;;;;;4.30;3.90;;;16.00;99.90;;;;;;5077138;28;20468;-74
2021/08/30 03:32:15;;;;;;;4.53;4.13;;;16.00;99.90;;;;;;5076769;28;20462;-74
2021/08/30 03:34:42;;;;;;;4.50;3.37;;;16.00;99.90;;;;;;5076685;28;20568;-74
2021/08/30 03:37:10;;;;;;;4.60;4.20;;;16.00;99.90;;;;;;5076866;28;20458;-74
2021/08/30 03:39:37;;;;;;;5.23;4.50;;;16.00;99.90;;;;;;5076462;28;20469;-74
2021/08/30 03:42:06;;;;;;;5.60;5.00;;;16.00;99.90;;;;;;5076256;28;20462;-74
2021/08/30 03:44:35;;;;;;;4.57;4.17;;;16.10;99.90;;;;;;5076407;28;20451;-73
2021/08/30 03:47:04;;;;;;;5.50;5.00;;;16.10;99.90;;;;;;5075445;28;20803;-73
2021/08/30 03:49:31;;;;;;;5.53;4.70;;;16.10;99.90;;;;;;5076491;28;20458;-74
2021/08/30 03:52:00;;;;;;;6.97;5.80;;;16.10;99.90;;;;;;5076395;28;20465;-74
2021/08/30 03:54:28;;;;;;;5.50;4.60;;;16.10;99.90;;;;;;5076276;28;20454;-74
2021/08/30 03:56:55;;;;;;;6.07;5.17;;;16.10;99.90;;;;;;5075933;28;20557;-74
2021/08/30 03:59:22;;;;;;;5.33;4.83;;;16.00;99.90;;;;;;5076302;28;20455;-74
2021/08/30 04:01:52;;;;;;;6.37;5.77;;;16.00;99.90;;;;;;5075795;28;20465;-73
2021/08/30 04:04:24;;;;;;;5.40;4.90;;;16.00;99.90;;;;;;5076258;28;20496;-74
2021/08/30 04:06:53;;;;;;;5.37;4.87;;;16.00;99.90;;;;;;5076027;28;20859;-74
2021/08/30 04:09:20;;;;;;;4.63;4.23;;;16.00;99.90;;;;;;5076095;28;20782;-73
2021/08/30 04:11:47;;;;;;;6.77;5.63;;;16.00;99.90;;;;;;5076020;28;20551;-74
2021/08/30 04:14:15;;;;;;;5.50;5.00;;;16.00;99.90;;;;;;5076156;28;20534;-74
2021/08/30 04:16:42;;;;;;;6.60;5.90;;;16.00;99.90;;;;;;5075994;28;20458;-74
2021/08/30 04:19:09;;;;;;;5.67;4.90;;;16.00;99.90;;;;;;5075815;28;20565;-73
2021/08/30 04:21:37;;;;;;;7.63;5.30;;;16.00;99.90;;;;;;5076159;28;20466;-74
2021/08/30 04:24:04;;;;;;;7.30;5.23;;;16.00;99.90;;;;;;5075585;28;20454;-73
2021/08/30 04:26:31;;;;;;;6.83;6.13;;;16.10;99.90;;;;;;5075684;28;20818;-73
2021/08/30 04:28:57;;;;;;;5.70;5.10;;;16.10;99.90;;;;;;5075865;28;20825;-74
2021/08/30 04:31:24;;;;;;;6.07;5.47;;;16.10;99.90;;;;;;5075524;28;20458;-74
2021/08/30 04:33:51;;;;;;;6.23;5.60;;;16.10;99.90;;;;;;5075381;28;20461;-74
2021/08/30 04:36:18;;;;;;;6.53;5.70;;;16.10;99.90;;;;;;5075266;28;20906;-74
2021/08/30 04:38:46;;;;;;;7.17;6.47;;;16.10;99.90;;;;;;5075711;28;20519;-73
2021/08/30 04:41:13;;;;;;;9.00;7.00;;;16.10;99.90;;;;;;5075442;28;20458;-74
2021/08/30 04:43:40;;;;;;;8.50;6.67;;;16.10;99.90;;;;;;5075221;28;20478;-74
2021/08/30 04:46:08;;;;;;;7.73;6.80;;;16.20;99.90;;;;;;5075329;28;20477;-74
2021/08/30 04:48:35;;;;;;;8.20;6.90;;;16.20;99.90;;;;;;5075034;28;20462;-75
2021/08/30 04:51:01;;;;;;;8.60;6.30;;;16.20;99.90;;;;;;5075499;28;20458;-74
2021/08/30 04:53:28;;;;;;;8.60;6.90;;;16.20;99.90;;;;;;5075648;28;20454;-74
2021/08/30 04:55:56;;;;;;;48.83;36.27;;;16.20;99.90;;;;;;5075597;28;20499;-74
2021/08/30 04:58:23;;;;;;;21.70;15.77;;;16.20;99.90;;;;;;5075511;28;20458;-74
2021/08/30 05:00:50;;;;;;;11.00;7.20;;;16.20;99.90;;;;;;5075136;28;20832;-74
2021/08/30 05:03:16;;;;;;;10.30;6.77;;;16.20;99.90;;;;;;5075722;28;20469;-74
2021/08/30 05:05:43;;;;;;;8.63;6.60;;;16.20;99.90;;;;;;5075652;28;20791;-74
2021/08/30 05:08:10;;;;;;;6.97;5.80;;;16.20;99.90;;;;;;5075787;28;20454;-74
2021/08/30 05:10:37;;;;;;;7.73;6.10;;;16.20;99.90;;;;;;5075350;28;20462;-73
2021/08/30 05:13:05;;;;;;;8.30;6.00;;;16.20;99.90;;;;;;5075774;28;20529;-74
2021/08/30 05:15:32;;;;;;;7.93;6.37;;;16.30;99.90;;;;;;5075327;28;20906;-73
2021/08/30 05:17:59;;;;;;;8.70;7.00;;;16.30;99.90;;;;;;5076136;28;20527;-73
2021/08/30 05:20:26;;;;;;;12.30;7.77;;;16.30;99.90;;;;;;5075053;28;20949;-74
2021/08/30 05:22:52;;;;;;;8.67;6.70;;;16.30;99.90;;;;;;5075609;28;20553;-74
2021/08/30 05:25:19;;;;;;;10.57;6.77;;;16.20;99.90;;;;;;5075248;28;20887;-74
2021/08/30 05:27:48;;;;;;;11.47;7.83;;;16.30;99.90;;;;;;5075790;28;20454;-73
2021/08/30 05:30:16;;;;;;;10.63;7.60;;;16.30;99.90;;;;;;5075241;28;20454;-73
2021/08/30 05:32:43;;;;;;;12.07;8.53;;;16.30;99.90;;;;;;5075803;28;20472;-73
2021/08/30 05:35:10;;;;;;;13.67;8.93;;;16.30;99.90;;;;;;5075342;28;20520;-73
2021/08/30 05:37:37;;;;;;;12.40;9.33;;;16.30;99.90;;;;;;5075455;28;20454;-74
2021/08/30 05:40:05;;;;;;;15.40;11.10;;;16.30;99.90;;;;;;5074574;28;20461;-73
2021/08/30 05:42:31;;;;;;;12.80;10.10;;;16.30;99.90;;;;;;5074589;28;20485;-73
2021/08/30 05:44:58;;;;;;;15.00;11.00;;;16.30;99.90;;;;;;5075078;28;20458;-73
2021/08/30 05:47:26;;;;;;;17.63;11.73;;;16.30;99.90;;;;;;5074926;28;20474;-74
2021/08/30 05:49:53;;;;;;;14.60;11.23;;;16.30;99.90;;;;;;5074407;28;20481;-74
2021/08/30 05:52:23;;;;;;;16.90;10.50;;;16.30;99.90;;;;;;5074545;28;20465;-73
2021/08/30 05:54:50;;;;;;;15.10;10.20;;;16.30;99.90;;;;;;5074744;28;20458;-72
2021/08/30 05:57:17;;;;;;;17.03;10.30;;;16.30;99.90;;;;;;5074421;28;20458;-74
2021/08/30 05:59:43;;;;;;;15.43;11.07;;;16.40;99.90;;;;;;5074299;28;20964;-73
2021/08/30 06:02:10;;;;;;;15.30;11.27;;;16.40;99.90;;;;;;5074985;28;20515;-73
2021/08/30 06:04:38;;;;;;;15.37;11.40;;;16.40;99.90;;;;;;5074624;28;20450;-75
2021/08/30 06:07:05;;;;;;;14.80;11.13;;;16.40;99.90;;;;;;5074802;28;20486;-73
2021/08/30 06:09:32;;;;;;;16.87;12.50;;;16.50;99.90;;;;;;5078377;28;20446;-74
2021/08/30 06:11:59;;;;;;;15.53;10.97;;;16.60;99.90;;;;;;5081208;28;20466;-73
2021/08/30 06:14:25;;;;;;;17.00;11.80;;;16.60;99.90;;;;;;5081266;28;20540;-74
2021/08/30 06:16:52;;;;;;;18.53;11.00;;;16.70;99.90;;;;;;5080757;28;20454;-74
2021/08/30 06:19:19;;;;;;;15.43;11.87;;;16.70;99.90;;;;;;5081087;28;20564;-75
2021/08/30 06:21:47;;;;;;;14.00;10.53;;;16.80;99.90;;;;;;5081754;28;20477;-74
2021/08/30 06:24:13;;;;;;;16.40;10.50;;;16.80;99.90;;;;;;5081453;28;20458;-74
2021/08/30 06:26:40;;;;;;;13.00;9.83;;;16.80;99.90;;;;;;5081524;28;20477;-74
2021/08/30 06:29:07;;;;;;;13.93;9.20;;;16.80;99.90;;;;;;5081460;28;20461;-75
2021/08/30 06:31:34;;;;;;;18.77;14.90;;;16.90;99.90;;;;;;5081076;28;20792;-74
2021/08/30 06:34:01;;;;;;;14.17;9.87;;;16.90;99.90;;;;;;5081708;28;20461;-74
2021/08/30 06:36:27;;;;;;;13.43;10.30;;;16.90;99.90;;;;;;5081909;28;20449;-73
2021/08/30 06:38:55;;;;;;;12.77;10.77;;;16.90;99.90;;;;;;5081242;28;20757;-74
2021/08/30 06:41:23;;;;;;;13.53;10.33;;;17.00;99.90;;;;;;5080618;28;20454;-73
2021/08/30 06:43:50;;;;;;;22.37;10.13;;;16.90;99.90;;;;;;5080658;28;20482;-73
2021/08/30 06:46:16;;;;;;;12.20;9.23;;;17.00;99.90;;;;;;5081087;28;20504;-74
2021/08/30 06:48:43;;;;;;;16.07;10.17;;;17.00;99.90;;;;;;5081462;28;20454;-74
2021/08/30 06:51:10;;;;;;;17.63;9.53;;;17.10;99.90;;;;;;5081369;28;20902;-74
2021/08/30 06:53:38;;;;;;;15.03;10.43;;;17.10;99.90;;;;;;5081320;28;20465;-73
2021/08/30 06:56:07;;;;;;;18.10;9.80;;;17.10;99.90;;;;;;5081926;28;20831;-74
2021/08/30 06:58:33;;;;;;;11.60;9.60;;;17.10;99.90;;;;;;5081613;28;20891;-73
2021/08/30 07:01:00;;;;;;;12.07;9.30;;;17.20;99.90;;;;;;5080889;28;20553;-73
2021/08/30 07:03:27;;;;;;;13.80;9.03;;;17.20;99.90;;;;;;5080962;28;20458;-73
2021/08/30 07:05:55;;;;;;;14.33;9.23;;;17.20;99.90;;;;;;5080589;28;20530;-74
2021/08/30 07:08:21;;;;;;;14.00;9.60;;;17.20;99.90;;;;;;5080928;28;20458;-74
2021/08/30 07:10:48;;;;;;;16.93;10.73;;;17.20;99.90;;;;;;5080788;28;20462;-74
2021/08/30 07:13:16;;;;;;;20.20;9.20;;;17.20;99.90;;;;;;5081046;28;20826;-74
2021/08/30 07:15:43;;;;;;;15.70;9.10;;;17.20;99.90;;;;;;5080370;28;20465;-74
2021/08/30 07:18:11;;;;;;;14.90;9.30;;;17.30;99.90;;;;;;5081105;28;20795;-74
2021/08/30 07:20:37;;;;;;;16.37;8.93;;;17.30;99.90;;;;;;5079953;28;20457;-74
2021/08/30 07:23:04;;;;;;;12.20;8.83;;;17.30;99.90;;;;;;5076749;28;20458;-74
2021/08/30 07:25:31;;;;;;;10.40;8.40;;;17.40;99.90;;;;;;5077501;28;20469;-74
2021/08/30 07:27:58;;;;;;;14.10;9.80;;;17.40;99.90;;;;;;5076784;28;20493;-74
2021/08/30 07:30:26;;;;;;;22.90;15.30;;;17.40;99.90;;;;;;5077521;28;20493;-75
2021/08/30 07:32:53;;;;;;;14.63;9.40;;;17.40;99.90;;;;;;5077441;28;20458;-74
2021/08/30 07:35:23;;;;;;;11.17;8.43;;;17.40;99.90;;;;;;5077630;28;20469;-74
2021/08/30 07:37:50;;;;;;;18.30;9.10;;;17.50;99.90;;;;;;5077162;28;21002;-73
2021/08/30 07:40:17;;;;;;;18.83;8.90;;;17.50;99.90;;;;;;5077473;28;20794;-73
2021/08/30 07:42:44;;;;;;;15.10;9.97;;;17.50;99.90;;;;;;5077036;28;20493;-73
2021/08/30 07:45:11;;;;;;;14.50;8.80;;;17.50;99.90;;;;;;5077016;28;20485;-73
2021/08/30 07:47:41;;;;;;;20.13;11.77;;;17.50;99.90;;;;;;5077072;28;20478;-73
2021/08/30 07:50:09;;;;;;;12.10;9.50;;;17.50;99.90;;;;;;5076436;28;20568;-73
2021/08/30 07:52:35;;;;;;;11.60;9.00;;;17.50;99.90;;;;;;5076935;28;20458;-73
2021/08/30 07:55:04;;;;;;;12.60;8.57;;;17.40;99.90;;;;;;5077516;28;20885;-73
2021/08/30 07:57:31;;;;;;;14.20;9.97;;;17.40;99.90;;;;;;5076975;28;20460;-73
2021/08/30 07:59:57;;;;;;;13.37;9.77;;;17.40;99.90;;;;;;5076263;28;20469;-74
2021/08/30 08:02:24;;;;;;;13.20;9.10;;;17.40;99.90;;;;;;5076202;28;20925;-73
2021/08/30 08:04:52;;;;;;;14.13;10.43;;;17.40;99.90;;;;;;5076825;28;20469;-74
2021/08/30 08:07:19;;;;;;;18.10;8.93;;;17.40;99.90;;;;;;5076358;28;20482;-74
2021/08/30 08:09:45;;;;;;;11.13;8.40;;;17.50;99.90;;;;;;5076619;28;20454;-75
2021/08/30 08:12:12;;;;;;;12.27;9.03;;;17.60;99.90;;;;;;5076542;28;20473;-73
2021/08/30 08:14:39;;;;;;;16.43;9.53;;;17.60;99.90;;;;;;5075893;28;20481;-73
2021/08/30 08:17:07;;;;;;;14.40;7.90;;;17.80;99.90;;;;;;5075928;28;20455;-74
2021/08/30 08:19:34;;;;;;;14.90;8.20;;;17.90;99.90;;;;;;5075685;28;20458;-74
2021/08/30 08:22:02;;;;;;;13.50;7.50;;;18.00;99.90;;;;;;5075679;28;20455;-73
2021/08/30 08:24:29;;;;;;;9.97;7.07;;;18.10;99.90;;;;;;5076007;28;20464;-74
2021/08/30 08:26:57;;;;;;;16.57;12.00;;;18.10;99.90;;;;;;5075792;28;20486;-74
2021/08/30 08:29:24;;;;;;;14.40;9.77;;;18.20;99.90;;;;;;5075958;28;20469;-73
2021/08/30 08:31:51;;;;;;;9.30;7.50;;;18.20;99.90;;;;;;5075215;28;20462;-73
2021/08/30 08:34:18;;;;;;;10.93;7.53;;;18.20;99.90;;;;;;5075611;28;20454;-74
2021/08/30 08:36:45;;;;;;;15.33;7.67;;;18.20;99.90;;;;;;5075399;28;20919;-74
2021/08/30 08:39:13;;;;;;;19.50;13.00;;;18.10;99.90;;;;;;5075188;28;20459;-74
2021/08/30 08:41:40;;;;;;;10.03;8.40;;;18.10;99.90;;;;;;5075773;28;20769;-73
2021/08/30 08:44:08;;;;;;;11.13;7.27;;;18.00;99.90;;;;;;5076846;28;20490;-73
2021/08/30 08:46:37;;;;;;;8.50;7.30;;;18.00;99.90;;;;;;5075704;28;20548;-73
2021/08/30 08:49:07;;;;;;;10.07;7.53;;;18.00;99.90;;;;;;5075734;28;20458;-74
2021/08/30 08:51:36;;;;;;;10.87;7.43;;;18.00;99.90;;;;;;5075471;28;20454;-74
2021/08/30 08:54:05;;;;;;;8.23;6.70;;;18.10;99.90;;;;;;5074932;28;20458;-74
2021/08/30 08:56:34;;;;;;;7.67;6.77;;;18.20;99.90;;;;;;5075384;28;20462;-75
2021/08/30 08:59:00;;;;;;;7.80;5.90;;;18.30;99.90;;;;;;5075892;28;20469;-74
2021/08/30 09:01:30;;;;;;;7.10;5.63;;;18.30;99.90;;;;;;5075366;28;20575;-74
2021/08/30 09:03:57;;;;;;;6.97;5.70;;;18.40;99.90;;;;;;5075162;28;20600;-73
2021/08/30 09:06:34;;;;;;;8.23;5.60;;;18.50;99.90;;;;;;5074980;28;20454;-74
2021/08/30 09:09:04;;;;;;;5.90;5.20;;;18.60;99.90;;;;;;5074886;28;20891;-74
2021/08/30 09:11:38;;;;;;;6.27;5.67;;;18.60;99.90;;;;;;5076030;28;20446;-74
2021/08/30 09:14:14;;;;;;;13.03;11.50;;;18.60;99.90;;;;;;5075550;28;20877;-74
2021/08/30 09:16:41;;;;;;;8.30;7.50;;;18.60;99.90;;;;;;5076518;28;20466;-73
2021/08/30 09:19:09;;;;;;;6.23;5.73;;;18.60;99.90;;;;;;5077042;28;20612;-73
2021/08/30 09:21:42;;;;;;;6.53;4.80;;;18.60;99.90;;;;;;5076781;28;20603;-74
2021/08/30 09:24:14;;;;;;;5.83;5.17;;;18.60;99.90;;;;;;5076459;28;20472;-73
2021/08/30 09:26:47;;;;;;;7.50;6.30;;;18.70;99.90;;;;;;5075416;28;20458;-73
2021/08/30 09:29:21;;;;;;;8.03;6.17;;;18.70;99.90;;;;;;5077118;28;20860;-74
2021/08/30 09:32:02;;;;;;;5.83;5.03;;;18.70;99.90;;;;;;5079925;28;20438;-75
2021/08/30 09:34:31;;;;;;;7.60;6.90;;;18.70;99.90;;;;;;5078381;28;20471;-73
2021/08/30 09:36:58;;;;;;;7.57;5.90;;;18.70;99.90;;;;;;5077601;28;20458;-74
2021/08/30 09:39:26;;;;;;;7.50;5.83;;;18.70;99.90;;;;;;5076824;28;20473;-74
2021/08/30 09:41:54;;;;;;;6.40;5.10;;;18.70;99.90;;;;;;5075894;28;20511;-73
2021/08/30 09:44:24;;;;;;;5.30;4.90;;;18.70;99.90;;;;;;5074267;28;20785;-74
2021/08/30 09:46:50;;;;;;;6.17;5.57;;;18.70;99.90;;;;;;5074604;28;20459;-74
2021/08/30 09:49:17;;;;;;;6.60;4.80;;;18.70;99.90;;;;;;5074488;28;20910;-74
2021/08/30 09:51:44;;;;;;;5.30;4.80;;;18.60;99.90;;;;;;5075429;28;20466;-74
2021/08/30 09:54:13;;;;;;;6.10;5.60;;;18.60;99.90;;;;;;5074914;28;20461;-74
2021/08/30 09:56:40;;;;;;;6.67;5.13;;;18.60;99.90;;;;;;5074624;28;20803;-73
2021/08/30 09:59:09;;;;;;;5.80;5.03;;;18.60;99.90;;;;;;5075171;28;20494;-73
2021/08/30 10:01:38;;;;;;;5.97;5.43;;;18.50;99.90;;;;;;5074699;28;20455;-74
2021/08/30 10:04:07;;;;;;;6.63;6.03;;;18.40;99.90;;;;;;5074213;28;20485;-73
2021/08/30 10:06:36;;;;;;;7.03;6.30;;;18.40;99.90;;;;;;5074102;28;20457;-74
2021/08/30 10:09:04;;;;;;;5.60;4.93;;;18.40;99.90;;;;;;5074603;28;20508;-74
2021/08/30 10:11:31;;;;;;;5.10;4.60;;;18.40;99.90;;;;;;5075718;28;20549;-75
2021/08/30 10:13:58;;;;;;;5.77;5.00;;;18.50;99.90;;;;;;5074491;28;20466;-74
2021/08/30 10:16:29;;;;;;;8.40;5.73;;;18.50;99.90;;;;;;5074341;28;20458;-73
2021/08/30 10:18:58;;;;;;;5.50;4.80;;;18.60;99.90;;;;;;5074280;28;20499;-73
2021/08/30 10:21:27;;;;;;;5.33;4.87;;;18.60;99.90;;;;;;5075139;28;20458;-74
2021/08/30 10:23:54;;;;;;;5.33;4.40;;;18.70;99.90;;;;;;5075108;28;20465;-74
2021/08/30 10:26:22;;;;;;;4.77;4.27;;;18.80;99.90;;;;;;5073979;28;20793;-76
2021/08/30 10:28:50;;;;;;;4.27;3.80;;;18.80;99.90;;;;;;5074541;28;20802;-73
2021/08/30 10:31:20;;;;;;;4.77;4.37;;;18.80;99.90;;;;;;5073837;28;20480;-73
2021/08/30 10:33:51;;;;;;;4.90;4.50;;;18.80;99.90;;;;;;5074204;28;20524;-73
2021/08/30 10:36:20;;;;;;;5.00;4.50;;;18.80;99.90;;;;;;5073746;28;20486;-74
2021/08/30 10:38:58;;;;;;;8.57;4.90;;;18.80;99.90;;;;;;5074477;28;20468;-74
2021/08/30 10:41:30;;;;;;;5.43;4.30;;;18.80;99.90;;;;;;5073813;28;20438;-74
2021/08/30 10:44:07;;;;;;;4.53;4.03;;;18.80;99.90;;;;;;5073774;28;20482;-73
2021/08/30 10:46:38;;;;;;;4.73;4.33;;;18.90;99.90;;;;;;5074177;28;20442;-73
2021/08/30 10:49:12;;;;;;;4.63;4.23;;;19.00;99.90;;;;;;5073635;28;20478;-73
2021/08/30 10:51:42;;;;;;;3.80;3.50;;;19.00;99.90;;;;;;5073927;28;20438;-73
2021/08/30 10:54:11;;;;;;;5.53;4.43;;;19.10;99.90;;;;;;5073972;28;20438;-74
2021/08/30 10:56:38;;;;;;;4.80;4.40;;;19.10;99.90;;;;;;5076959;28;20454;-73
2021/08/30 10:59:10;;;;;;;6.03;4.27;;;19.10;99.90;;;;;;5077396;28;20457;-73
2021/08/30 11:01:39;;;;;;;4.30;3.87;;;19.10;99.90;;;;;;5077659;28;20474;-73
2021/08/30 11:04:08;;;;;;;3.60;3.30;;;19.00;99.90;;;;;;5079605;28;20485;-74
2021/08/30 11:06:38;;;;;;;4.80;4.20;;;19.00;99.90;;;;;;5079123;28;20469;-73
2021/08/30 11:09:05;;;;;;;3.73;3.43;;;18.90;99.90;;;;;;5077433;28;20553;-74
2021/08/30 11:11:33;;;;;;;5.33;4.83;;;18.90;99.90;;;;;;5077753;28;20741;-73
2021/08/30 11:14:03;;;;;;;6.20;5.50;;;18.90;99.90;;;;;;5077368;28;20549;-74
2021/08/30 11:16:31;;;;;;;6.10;5.50;;;18.90;99.90;;;;;;5077184;28;20462;-73
2021/08/30 11:19:00;;;;;;;7.97;6.00;;;18.90;99.90;;;;;;5080138;28;20786;-74
2021/08/30 11:21:31;;;;;;;4.77;3.80;;;18.90;99.90;;;;;;5083982;28;20484;-73
2021/08/30 11:24:00;;;;;;;5.23;4.70;;;19.00;99.90;;;;;;5080912;28;20457;-74
2021/08/30 11:26:26;;;;;;;4.67;4.27;;;19.10;99.90;;;;;;5080767;28;20472;-73
2021/08/30 11:28:57;;;;;;;4.53;4.13;;;19.20;99.90;;;;;;5080391;28;20478;-74
2021/08/30 11:31:25;;;;;;;3.90;3.60;;;19.30;99.90;;;;;;5079892;28;20458;-72
2021/08/30 11:33:52;;;;;;;4.93;4.43;;;19.40;99.90;;;;;;5080857;28;20511;-75
2021/08/30 11:36:18;;;;;;;5.13;4.70;;;19.50;99.90;;;;;;5080500;28;20773;-74
2021/08/30 11:38:56;;;;;;;4.40;4.00;;;19.50;99.90;;;;;;5079373;28;20450;-75
2021/08/30 11:41:24;;;;;;;4.77;4.37;;;19.60;99.90;;;;;;5077888;28;20844;-73
2021/08/30 11:44:03;;;;;;;3.87;3.57;;;19.90;99.90;;;;;;5076676;28;20488;-73
2021/08/30 11:46:30;;;;;;;4.53;4.00;;;20.10;99.90;;;;;;5076856;28;20442;-73
2021/08/30 11:48:58;;;;;;;4.70;4.00;;;20.10;99.90;;;;;;5076585;28;20495;-74
2021/08/30 11:51:26;;;;;;;5.67;4.10;;;20.20;99.90;;;;;;5076588;28;20458;-73
2021/08/30 11:53:53;;;;;;;3.83;3.23;;;20.20;99.90;;;;;;5076367;28;20569;-75
2021/08/30 11:56:22;;;;;;;6.30;3.40;;;20.20;99.90;;;;;;5076686;28;20454;-75
2021/08/30 11:58:50;;;;;;;3.77;3.47;;;20.10;99.90;;;;;;5076734;28;20461;-75
2021/08/30 12:01:19;;;;;;;4.30;3.77;;;20.10;99.90;;;;;;5076139;28;20462;-75
2021/08/30 12:03:46;;;;;;;4.63;3.97;;;20.00;99.90;;;;;;5076526;28;20462;-74
2021/08/30 12:06:15;;;;;;;3.43;3.13;;;20.00;99.90;;;;;;5075679;28;20465;-74
2021/08/30 12:08:48;;;;;;;3.43;3.13;;;19.90;99.90;;;;;;5077532;28;20501;-75
2021/08/30 12:11:15;;;;;;;3.43;3.13;;;19.90;99.90;;;;;;5076679;28;20439;-73
2021/08/30 12:13:55;;;;;;;4.10;3.70;;;19.90;99.90;;;;;;5076031;28;20461;-72
2021/08/30 12:16:25;;;;;;;3.43;3.13;;;20.00;99.90;;;;;;5075687;28;20519;-72
2021/08/30 12:18:53;;;;;;;3.60;3.30;;;20.00;99.90;;;;;;5075448;28;20455;-73
2021/08/30 12:21:33;;;;;;;3.90;3.13;;;20.00;99.90;;;;;;5075829;28;20465;-73
2021/08/30 12:23:59;;;;;;;3.50;2.90;;;20.00;99.90;;;;;;5075806;28;20438;-73
2021/08/30 12:26:26;;;;;;;4.13;2.63;;;20.00;99.90;;;;;;5075238;28;20956;-71
2021/08/30 12:28:55;;;;;;;3.60;2.60;;;20.00;99.90;;;;;;5075380;28;20962;-74
2021/08/30 12:31:29;;;;;;;3.27;2.97;;;20.00;99.90;;;;;;5075413;28;20466;-74
2021/08/30 12:34:08;;;;;;;2.93;2.73;;;20.00;99.90;;;;;;5076215;28;20567;-73
2021/08/30 12:36:36;;;;;;;3.13;2.83;;;20.00;99.90;;;;;;5075799;28;20454;-74
2021/08/30 12:39:04;;;;;;;3.43;3.13;;;20.10;99.90;;;;;;5076408;28;20454;-74
2021/08/30 12:41:32;;;;;;;2.87;2.60;;;20.10;99.90;;;;;;5075249;28;20792;-74
2021/08/30 12:43:58;;;;;;;2.83;2.53;;;20.10;99.90;;;;;;5075197;28;20953;-74
2021/08/30 12:46:28;;;;;;;3.40;2.90;;;20.10;99.90;;;;;;5075434;28;20465;-72
2021/08/30 12:48:54;;;;;;;3.37;3.07;;;20.10;99.90;;;;;;5075373;28;20969;-73
2021/08/30 12:51:21;;;;;;;3.17;2.87;;;20.20;99.90;;;;;;5074874;28;20951;-73